This is the latest recevied weather packets stored in our database for station/object KY4EF. If no packets are shown the sender has not sent any weather packets the latest 10 day(s).
| Time | Temp. | Humidity | Pressure | Rain* | Wind** | Luminosity | Snow |
|---|---|---|---|---|---|---|---|
| 1777413385 | 22.78° C | 73% | 1015.8 hPa | 0 mm | - | 130 W/m² | - |
| 1777413081 | 21.67° C | 76% | 1015.9 hPa | 0 mm | - | 143 W/m² | - |
| 1777412776 | 21.67° C | 76% | 1016 hPa | 0 mm | - | 142 W/m² | - |
| 1777412476 | 21.67° C | 76% | 1015.7 hPa | 0 mm | - | 136 W/m² | - |
| 1777412173 | 21.67° C | 75% | 1015.7 hPa | 0 mm | - | 151 W/m² | - |
| 1777411869 | 22.22° C | 72% | 1015.7 hPa | 0 mm | - | 164 W/m² | - |
| 1777411568 | 22.22° C | 71% | 1015.8 hPa | 0 mm | - | 186 W/m² | - |
| 1777411263 | 21.11° C | 77% | 1015.8 hPa | 0 mm | - | 335 W/m² | - |
| 1777410957 | 20.56° C | 80% | 1015.7 hPa | 0 mm | - | 333 W/m² | - |
| 1777410657 | 20.56° C | 82% | 1016.2 hPa | 0 mm | - | 224 W/m² | - |
| 1777410352 | 21.11° C | 79% | 1016.4 hPa | 0 mm | - | 119 W/m² | - |
| 1777410045 | 21.67° C | 76% | 1016.6 hPa | 0 mm | - | 307 W/m² | - |
| 1777409740 | 22.22° C | 72% | 1016.7 hPa | 0 mm | - | 168 W/m² | - |
| 1777409437 | 21.67° C | 77% | 1016.8 hPa | 0 mm | - | 190 W/m² | - |
| 1777409133 | 21.67° C | 77% | 1017.3 hPa | 0 mm | - | 132 W/m² | - |
| 1777408829 | 21.67° C | 73% | 1017.1 hPa | 0 mm | - | 175 W/m² | - |
| 1777408525 | 20.56° C | 78% | 1017.1 hPa | 0 mm | - | 185 W/m² | - |
| 1777408224 | 21.11° C | 78% | 1017.4 hPa | 0 mm | - | 176 W/m² | - |
| 1777407920 | 21.11° C | 77% | 1017.5 hPa | 0 mm | - | 144 W/m² | - |
| 1777407617 | 21.11° C | 74% | 1017.6 hPa | 0 mm | - | 174 W/m² | - |
| 1777407312 | 21.11° C | 78% | 1017.5 hPa | 0 mm | - | 165 W/m² | - |
| 1777407007 | 21.67° C | 72% | 1017.6 hPa | 0 mm | - | 150 W/m² | - |
| 1777406702 | 21.67° C | 73% | 1017.7 hPa | 0 mm | - | 138 W/m² | - |
| 1777406398 | 22.22° C | 69% | 1017.8 hPa | 0 mm | - | 135 W/m² | - |
| 1777406096 | 21.11° C | 77% | 1017.6 hPa | 0 mm | - | 312 W/m² | - |
* Rain latest hour (hover to see other rain measurements)
** Current wind speed in m/s (hover to see current wind gust speed)